sensor_id;sensor_type;location;lat;lon;timestamp;P1;durP1;ratioP1;P2;durP2;ratioP2
75793;SDS011;64418;47.536;19.074;2023-03-13T00:01:25;8.25;;;4.18;;
75793;SDS011;64418;47.536;19.074;2023-03-13T00:03:52;8.07;;;4.82;;
75793;SDS011;64418;47.536;19.074;2023-03-13T00:06:18;9.57;;;4.57;;
75793;SDS011;64418;47.536;19.074;2023-03-13T00:08:45;6.62;;;3.25;;
75793;SDS011;64418;47.536;19.074;2023-03-13T00:11:11;9.32;;;4.97;;
75793;SDS011;64418;47.536;19.074;2023-03-13T00:13:38;6.53;;;3.43;;
75793;SDS011;64418;47.536;19.074;2023-03-13T00:16:04;6.78;;;4.10;;
75793;SDS011;64418;47.536;19.074;2023-03-13T00:18:31;7.62;;;4.35;;
75793;SDS011;64418;47.536;19.074;2023-03-13T00:21:17;6.18;;;3.58;;
75793;SDS011;64418;47.536;19.074;2023-03-13T00:23:46;8.25;;;4.18;;
75793;SDS011;64418;47.536;19.074;2023-03-13T00:26:12;9.70;;;4.60;;
75793;SDS011;64418;47.536;19.074;2023-03-13T00:28:40;7.97;;;4.07;;
75793;SDS011;64418;47.536;19.074;2023-03-13T00:31:07;8.35;;;4.50;;
75793;SDS011;64418;47.536;19.074;2023-03-13T00:33:55;7.82;;;3.97;;
75793;SDS011;64418;47.536;19.074;2023-03-13T00:36:23;6.97;;;4.28;;
75793;SDS011;64418;47.536;19.074;2023-03-13T00:38:53;8.50;;;4.50;;
75793;SDS011;64418;47.536;19.074;2023-03-13T00:41:20;6.32;;;3.97;;
75793;SDS011;64418;47.536;19.074;2023-03-13T00:43:47;6.97;;;4.30;;
75793;SDS011;64418;47.536;19.074;2023-03-13T00:46:14;7.60;;;3.50;;
75793;SDS011;64418;47.536;19.074;2023-03-13T00:48:43;7.45;;;3.80;;
75793;SDS011;64418;47.536;19.074;2023-03-13T00:51:09;8.43;;;4.80;;
75793;SDS011;64418;47.536;19.074;2023-03-13T00:53:35;8.65;;;4.57;;
75793;SDS011;64418;47.536;19.074;2023-03-13T00:56:03;7.00;;;4.15;;
75793;SDS011;64418;47.536;19.074;2023-03-13T00:58:32;7.30;;;4.40;;
75793;SDS011;64418;47.536;19.074;2023-03-13T01:01:20;8.38;;;4.97;;
75793;SDS011;64418;47.536;19.074;2023-03-13T01:03:47;7.73;;;3.97;;
75793;SDS011;64418;47.536;19.074;2023-03-13T01:06:16;9.47;;;5.17;;
75793;SDS011;64418;47.536;19.074;2023-03-13T01:08:43;7.93;;;4.50;;
75793;SDS011;64418;47.536;19.074;2023-03-13T01:11:11;8.77;;;4.60;;
75793;SDS011;64418;47.536;19.074;2023-03-13T01:13:38;6.03;;;3.87;;
75793;SDS011;64418;47.536;19.074;2023-03-13T01:16:05;7.53;;;4.60;;
75793;SDS011;64418;47.536;19.074;2023-03-13T01:18:33;9.07;;;5.37;;
75793;SDS011;64418;47.536;19.074;2023-03-13T01:21:20;9.70;;;5.10;;
75793;SDS011;64418;47.536;19.074;2023-03-13T01:23:47;9.57;;;5.00;;
75793;SDS011;64418;47.536;19.074;2023-03-13T01:26:15;9.75;;;5.00;;
75793;SDS011;64418;47.536;19.074;2023-03-13T01:28:41;8.25;;;4.35;;
75793;SDS011;64418;47.536;19.074;2023-03-13T01:31:10;7.23;;;4.27;;
75793;SDS011;64418;47.536;19.074;2023-03-13T01:33:40;7.15;;;4.03;;
75793;SDS011;64418;47.536;19.074;2023-03-13T01:36:07;7.30;;;4.40;;
75793;SDS011;64418;47.536;19.074;2023-03-13T01:38:53;7.05;;;4.18;;
75793;SDS011;64418;47.536;19.074;2023-03-13T01:41:22;7.30;;;3.78;;
75793;SDS011;64418;47.536;19.074;2023-03-13T01:43:48;5.83;;;3.53;;
75793;SDS011;64418;47.536;19.074;2023-03-13T01:46:15;5.67;;;3.40;;
75793;SDS011;64418;47.536;19.074;2023-03-13T01:48:44;8.02;;;4.75;;
75793;SDS011;64418;47.536;19.074;2023-03-13T01:51:17;8.80;;;3.60;;
75793;SDS011;64418;47.536;19.074;2023-03-13T01:53:47;5.45;;;3.50;;
75793;SDS011;64418;47.536;19.074;2023-03-13T01:56:17;7.18;;;4.25;;
75793;SDS011;64418;47.536;19.074;2023-03-13T01:58:49;7.50;;;3.77;;
75793;SDS011;64418;47.536;19.074;2023-03-13T02:01:16;6.12;;;3.30;;
75793;SDS011;64418;47.536;19.074;2023-03-13T02:03:43;6.30;;;3.58;;
75793;SDS011;64418;47.536;19.074;2023-03-13T02:06:10;6.57;;;3.80;;
75793;SDS011;64418;47.536;19.074;2023-03-13T02:08:37;6.12;;;4.10;;
75793;SDS011;64418;47.536;19.074;2023-03-13T02:11:09;6.57;;;3.67;;
75793;SDS011;64418;47.536;19.074;2023-03-13T02:13:43;7.30;;;4.03;;
75793;SDS011;64418;47.536;19.074;2023-03-13T02:16:11;6.72;;;3.95;;
75793;SDS011;64418;47.536;19.074;2023-03-13T02:18:37;7.03;;;4.65;;
75793;SDS011;64418;47.536;19.074;2023-03-13T02:21:07;9.23;;;3.93;;
75793;SDS011;64418;47.536;19.074;2023-03-13T02:23:41;7.82;;;4.28;;
75793;SDS011;64418;47.536;19.074;2023-03-13T02:26:16;6.93;;;4.20;;
75793;SDS011;64418;47.536;19.074;2023-03-13T02:28:42;8.55;;;4.57;;
75793;SDS011;64418;47.536;19.074;2023-03-13T02:31:08;9.40;;;4.13;;
75793;SDS011;64418;47.536;19.074;2023-03-13T02:33:35;8.52;;;3.60;;
75793;SDS011;64418;47.536;19.074;2023-03-13T02:36:06;7.12;;;4.18;;
75793;SDS011;64418;47.536;19.074;2023-03-13T02:38:54;6.10;;;3.67;;
75793;SDS011;64418;47.536;19.074;2023-03-13T02:41:25;7.40;;;3.75;;
75793;SDS011;64418;47.536;19.074;2023-03-13T02:43:52;8.13;;;3.90;;
75793;SDS011;64418;47.536;19.074;2023-03-13T02:46:19;7.37;;;4.10;;
75793;SDS011;64418;47.536;19.074;2023-03-13T02:48:46;7.18;;;4.15;;
75793;SDS011;64418;47.536;19.074;2023-03-13T02:51:15;6.10;;;3.53;;
75793;SDS011;64418;47.536;19.074;2023-03-13T02:53:46;6.93;;;4.47;;
75793;SDS011;64418;47.536;19.074;2023-03-13T02:56:14;7.43;;;4.28;;
75793;SDS011;64418;47.536;19.074;2023-03-13T02:58:45;8.20;;;4.37;;
75793;SDS011;64418;47.536;19.074;2023-03-13T03:01:12;7.30;;;4.15;;
75793;SDS011;64418;47.536;19.074;2023-03-13T03:03:37;7.37;;;4.27;;
75793;SDS011;64418;47.536;19.074;2023-03-13T03:06:04;8.52;;;4.80;;
75793;SDS011;64418;47.536;19.074;2023-03-13T03:08:31;6.35;;;3.80;;
75793;SDS011;64418;47.536;19.074;2023-03-13T03:10:58;8.10;;;4.60;;
75793;SDS011;64418;47.536;19.074;2023-03-13T03:13:24;8.45;;;3.90;;
75793;SDS011;64418;47.536;19.074;2023-03-13T03:16:12;7.10;;;3.78;;
75793;SDS011;64418;47.536;19.074;2023-03-13T03:18:39;5.70;;;3.92;;
75793;SDS011;64418;47.536;19.074;2023-03-13T03:21:05;6.47;;;4.18;;
75793;SDS011;64418;47.536;19.074;2023-03-13T03:23:31;6.67;;;4.23;;
75793;SDS011;64418;47.536;19.074;2023-03-13T03:25:57;9.13;;;4.20;;
75793;SDS011;64418;47.536;19.074;2023-03-13T03:28:22;5.62;;;3.53;;
75793;SDS011;64418;47.536;19.074;2023-03-13T03:30:48;6.33;;;3.90;;
75793;SDS011;64418;47.536;19.074;2023-03-13T03:33:15;5.30;;;2.90;;
75793;SDS011;64418;47.536;19.074;2023-03-13T03:35:41;7.35;;;3.92;;
75793;SDS011;64418;47.536;19.074;2023-03-13T03:38:07;7.23;;;3.90;;
75793;SDS011;64418;47.536;19.074;2023-03-13T03:40:33;7.12;;;3.97;;
75793;SDS011;64418;47.536;19.074;2023-03-13T03:42:59;7.37;;;4.47;;
75793;SDS011;64418;47.536;19.074;2023-03-13T03:45:45;9.67;;;4.30;;
75793;SDS011;64418;47.536;19.074;2023-03-13T03:48:11;5.72;;;3.28;;
75793;SDS011;64418;47.536;19.074;2023-03-13T03:50:38;6.60;;;3.60;;
75793;SDS011;64418;47.536;19.074;2023-03-13T03:53:04;7.43;;;4.07;;
75793;SDS011;64418;47.536;19.074;2023-03-13T03:55:30;6.68;;;3.62;;
75793;SDS011;64418;47.536;19.074;2023-03-13T03:57:55;9.23;;;4.15;;
75793;SDS011;64418;47.536;19.074;2023-03-13T04:00:21;8.00;;;4.73;;
75793;SDS011;64418;47.536;19.074;2023-03-13T04:03:07;9.70;;;4.22;;
75793;SDS011;64418;47.536;19.074;2023-03-13T04:05:33;6.73;;;4.23;;
75793;SDS011;64418;47.536;19.074;2023-03-13T04:08:00;7.28;;;4.15;;
75793;SDS011;64418;47.536;19.074;2023-03-13T04:10:26;8.73;;;4.53;;
75793;SDS011;64418;47.536;19.074;2023-03-13T04:12:51;7.40;;;4.17;;
75793;SDS011;64418;47.536;19.074;2023-03-13T04:15:17;8.93;;;4.50;;
75793;SDS011;64418;47.536;19.074;2023-03-13T04:17:43;7.67;;;4.20;;
75793;SDS011;64418;47.536;19.074;2023-03-13T04:20:10;6.82;;;4.32;;
75793;SDS011;64418;47.536;19.074;2023-03-13T04:22:36;8.82;;;4.30;;
75793;SDS011;64418;47.536;19.074;2023-03-13T04:25:03;6.40;;;3.90;;
75793;SDS011;64418;47.536;19.074;2023-03-13T04:27:29;7.25;;;3.97;;
75793;SDS011;64418;47.536;19.074;2023-03-13T04:29:56;8.32;;;3.95;;
75793;SDS011;64418;47.536;19.074;2023-03-13T04:32:22;7.50;;;4.10;;
75793;SDS011;64418;47.536;19.074;2023-03-13T04:34:48;9.03;;;4.00;;
75793;SDS011;64418;47.536;19.074;2023-03-13T04:37:13;8.00;;;4.22;;
75793;SDS011;64418;47.536;19.074;2023-03-13T04:39:39;7.70;;;4.37;;
75793;SDS011;64418;47.536;19.074;2023-03-13T04:42:08;8.37;;;4.40;;
75793;SDS011;64418;47.536;19.074;2023-03-13T04:44:35;7.82;;;4.07;;
75793;SDS011;64418;47.536;19.074;2023-03-13T04:47:01;7.45;;;4.22;;
75793;SDS011;64418;47.536;19.074;2023-03-13T04:49:27;9.30;;;4.28;;
75793;SDS011;64418;47.536;19.074;2023-03-13T04:51:53;8.18;;;4.05;;
75793;SDS011;64418;47.536;19.074;2023-03-13T04:54:19;8.00;;;4.27;;
75793;SDS011;64418;47.536;19.074;2023-03-13T04:57:04;8.75;;;4.30;;
75793;SDS011;64418;47.536;19.074;2023-03-13T04:59:32;7.97;;;4.45;;
75793;SDS011;64418;47.536;19.074;2023-03-13T05:02:18;8.17;;;4.40;;
75793;SDS011;64418;47.536;19.074;2023-03-13T05:04:43;7.97;;;4.32;;
75793;SDS011;64418;47.536;19.074;2023-03-13T05:07:09;7.80;;;4.20;;
75793;SDS011;64418;47.536;19.074;2023-03-13T05:09:55;10.67;;;4.03;;
75793;SDS011;64418;47.536;19.074;2023-03-13T05:12:22;7.60;;;4.15;;
75793;SDS011;64418;47.536;19.074;2023-03-13T05:15:08;6.80;;;4.07;;
75793;SDS011;64418;47.536;19.074;2023-03-13T05:17:34;8.63;;;4.70;;
75793;SDS011;64418;47.536;19.074;2023-03-13T05:20:00;8.15;;;3.62;;
75793;SDS011;64418;47.536;19.074;2023-03-13T05:22:26;8.48;;;4.78;;
75793;SDS011;64418;47.536;19.074;2023-03-13T05:24:51;8.87;;;4.87;;
75793;SDS011;64418;47.536;19.074;2023-03-13T05:27:17;7.15;;;4.75;;
75793;SDS011;64418;47.536;19.074;2023-03-13T05:29:44;9.23;;;4.70;;
75793;SDS011;64418;47.536;19.074;2023-03-13T05:32:10;10.75;;;5.65;;
75793;SDS011;64418;47.536;19.074;2023-03-13T05:34:55;10.45;;;4.55;;
75793;SDS011;64418;47.536;19.074;2023-03-13T05:37:21;10.17;;;4.77;;
75793;SDS011;64418;47.536;19.074;2023-03-13T05:39:47;8.27;;;4.53;;
75793;SDS011;64418;47.536;19.074;2023-03-13T05:42:13;10.18;;;5.45;;
75793;SDS011;64418;47.536;19.074;2023-03-13T05:44:39;10.13;;;4.90;;
75793;SDS011;64418;47.536;19.074;2023-03-13T05:47:06;8.63;;;5.10;;
75793;SDS011;64418;47.536;19.074;2023-03-13T05:49:31;10.30;;;5.80;;
75793;SDS011;64418;47.536;19.074;2023-03-13T05:51:57;9.90;;;5.18;;
75793;SDS011;64418;47.536;19.074;2023-03-13T05:54:23;8.30;;;5.07;;
75793;SDS011;64418;47.536;19.074;2023-03-13T05:57:08;10.82;;;5.57;;
75793;SDS011;64418;47.536;19.074;2023-03-13T05:59:35;10.95;;;6.07;;
75793;SDS011;64418;47.536;19.074;2023-03-13T06:02:01;9.25;;;5.10;;
75793;SDS011;64418;47.536;19.074;2023-03-13T06:04:28;10.23;;;5.70;;
75793;SDS011;64418;47.536;19.074;2023-03-13T06:06:54;12.68;;;6.28;;
75793;SDS011;64418;47.536;19.074;2023-03-13T06:09:20;10.77;;;5.60;;
75793;SDS011;64418;47.536;19.074;2023-03-13T06:11:45;12.57;;;6.57;;
75793;SDS011;64418;47.536;19.074;2023-03-13T06:14:11;8.80;;;4.70;;
75793;SDS011;64418;47.536;19.074;2023-03-13T06:16:37;11.75;;;5.90;;
75793;SDS011;64418;47.536;19.074;2023-03-13T06:19:04;11.57;;;5.65;;
75793;SDS011;64418;47.536;19.074;2023-03-13T06:21:51;9.98;;;5.47;;
75793;SDS011;64418;47.536;19.074;2023-03-13T06:24:17;9.65;;;5.20;;
75793;SDS011;64418;47.536;19.074;2023-03-13T06:26:42;8.93;;;5.07;;
75793;SDS011;64418;47.536;19.074;2023-03-13T06:29:08;10.00;;;5.60;;
75793;SDS011;64418;47.536;19.074;2023-03-13T06:31:34;12.50;;;6.00;;
75793;SDS011;64418;47.536;19.074;2023-03-13T06:33:59;9.27;;;5.00;;
75793;SDS011;64418;47.536;19.074;2023-03-13T06:36:25;11.10;;;5.93;;
75793;SDS011;64418;47.536;19.074;2023-03-13T06:38:53;10.38;;;5.75;;
75793;SDS011;64418;47.536;19.074;2023-03-13T06:41:18;9.30;;;5.22;;
75793;SDS011;64418;47.536;19.074;2023-03-13T06:43:45;12.27;;;4.97;;
75793;SDS011;64418;47.536;19.074;2023-03-13T06:46:30;10.45;;;5.75;;
75793;SDS011;64418;47.536;19.074;2023-03-13T06:48:56;12.90;;;5.53;;
75793;SDS011;64418;47.536;19.074;2023-03-13T06:51:42;11.00;;;5.60;;
75793;SDS011;64418;47.536;19.074;2023-03-13T06:54:10;13.88;;;6.10;;
75793;SDS011;64418;47.536;19.074;2023-03-13T06:56:36;9.68;;;5.95;;
75793;SDS011;64418;47.536;19.074;2023-03-13T06:59:01;10.67;;;5.53;;
75793;SDS011;64418;47.536;19.074;2023-03-13T07:01:27;12.48;;;5.53;;
75793;SDS011;64418;47.536;19.074;2023-03-13T07:04:13;9.97;;;5.40;;
75793;SDS011;64418;47.536;19.074;2023-03-13T07:06:38;10.93;;;5.00;;
75793;SDS011;64418;47.536;19.074;2023-03-13T07:09:04;10.40;;;5.50;;
75793;SDS011;64418;47.536;19.074;2023-03-13T07:11:32;8.70;;;5.10;;
75793;SDS011;64418;47.536;19.074;2023-03-13T07:14:17;10.35;;;5.28;;
75793;SDS011;64418;47.536;19.074;2023-03-13T07:16:44;9.70;;;5.18;;
75793;SDS011;64418;47.536;19.074;2023-03-13T07:19:10;10.18;;;5.87;;
75793;SDS011;64418;47.536;19.074;2023-03-13T07:21:56;10.02;;;5.65;;
75793;SDS011;64418;47.536;19.074;2023-03-13T07:24:22;10.23;;;5.57;;
75793;SDS011;64418;47.536;19.074;2023-03-13T07:27:09;8.10;;;4.80;;
75793;SDS011;64418;47.536;19.074;2023-03-13T07:29:54;8.57;;;4.87;;
75793;SDS011;64418;47.536;19.074;2023-03-13T07:32:21;8.98;;;4.70;;
75793;SDS011;64418;47.536;19.074;2023-03-13T07:34:46;12.70;;;5.82;;
75793;SDS011;64418;47.536;19.074;2023-03-13T07:37:13;8.02;;;5.07;;
75793;SDS011;64418;47.536;19.074;2023-03-13T07:39:40;14.13;;;5.57;;
75793;SDS011;64418;47.536;19.074;2023-03-13T07:42:09;12.30;;;5.25;;
75793;SDS011;64418;47.536;19.074;2023-03-13T07:44:55;8.18;;;4.65;;
75793;SDS011;64418;47.536;19.074;2023-03-13T07:47:21;11.52;;;4.70;;
75793;SDS011;64418;47.536;19.074;2023-03-13T07:50:07;9.68;;;4.75;;
75793;SDS011;64418;47.536;19.074;2023-03-13T07:52:34;9.37;;;4.67;;
75793;SDS011;64418;47.536;19.074;2023-03-13T07:55:00;9.45;;;4.47;;
75793;SDS011;64418;47.536;19.074;2023-03-13T07:57:47;10.32;;;5.43;;
75793;SDS011;64418;47.536;19.074;2023-03-13T08:00:13;7.93;;;4.20;;
75793;SDS011;64418;47.536;19.074;2023-03-13T08:02:39;7.57;;;4.75;;
75793;SDS011;64418;47.536;19.074;2023-03-13T08:05:06;9.57;;;4.20;;
75793;SDS011;64418;47.536;19.074;2023-03-13T08:07:32;8.40;;;4.68;;
75793;SDS011;64418;47.536;19.074;2023-03-13T08:09:57;8.48;;;4.95;;
75793;SDS011;64418;47.536;19.074;2023-03-13T08:12:23;11.63;;;4.50;;
75793;SDS011;64418;47.536;19.074;2023-03-13T08:14:50;9.23;;;5.05;;
75793;SDS011;64418;47.536;19.074;2023-03-13T08:17:16;7.90;;;4.50;;
75793;SDS011;64418;47.536;19.074;2023-03-13T08:20:02;10.90;;;5.10;;
75793;SDS011;64418;47.536;19.074;2023-03-13T08:22:28;7.20;;;4.40;;
75793;SDS011;64418;47.536;19.074;2023-03-13T08:24:54;7.15;;;4.28;;
75793;SDS011;64418;47.536;19.074;2023-03-13T08:27:20;8.13;;;4.87;;
75793;SDS011;64418;47.536;19.074;2023-03-13T08:30:08;7.53;;;4.57;;
75793;SDS011;64418;47.536;19.074;2023-03-13T08:32:54;8.07;;;4.05;;
75793;SDS011;64418;47.536;19.074;2023-03-13T08:35:20;10.15;;;4.78;;
75793;SDS011;64418;47.536;19.074;2023-03-13T08:38:06;6.55;;;3.92;;
75793;SDS011;64418;47.536;19.074;2023-03-13T08:40:32;8.20;;;4.50;;
75793;SDS011;64418;47.536;19.074;2023-03-13T08:43:18;8.77;;;4.75;;
75793;SDS011;64418;47.536;19.074;2023-03-13T08:45:45;6.57;;;3.95;;
75793;SDS011;64418;47.536;19.074;2023-03-13T08:48:11;9.13;;;4.40;;
75793;SDS011;64418;47.536;19.074;2023-03-13T08:51:00;9.45;;;4.90;;
75793;SDS011;64418;47.536;19.074;2023-03-13T08:53:48;8.48;;;4.97;;
75793;SDS011;64418;47.536;19.074;2023-03-13T08:56:35;7.68;;;4.62;;
75793;SDS011;64418;47.536;19.074;2023-03-13T08:59:01;10.00;;;4.68;;
75793;SDS011;64418;47.536;19.074;2023-03-13T09:01:31;7.33;;;5.17;;
75793;SDS011;64418;47.536;19.074;2023-03-13T09:04:18;9.43;;;5.50;;
75793;SDS011;64418;47.536;19.074;2023-03-13T09:06:44;11.32;;;5.15;;
75793;SDS011;64418;47.536;19.074;2023-03-13T09:09:11;12.73;;;5.12;;
75793;SDS011;64418;47.536;19.074;2023-03-13T09:11:57;10.05;;;4.82;;
75793;SDS011;64418;47.536;19.074;2023-03-13T09:14:23;9.00;;;4.75;;
75793;SDS011;64418;47.536;19.074;2023-03-13T09:16:50;9.30;;;4.70;;
75793;SDS011;64418;47.536;19.074;2023-03-13T09:19:36;9.90;;;5.10;;
75793;SDS011;64418;47.536;19.074;2023-03-13T09:22:02;11.82;;;5.10;;
75793;SDS011;64418;47.536;19.074;2023-03-13T09:24:28;7.90;;;4.97;;
75793;SDS011;64418;47.536;19.074;2023-03-13T09:27:14;7.50;;;5.15;;
75793;SDS011;64418;47.536;19.074;2023-03-13T09:29:40;8.18;;;4.60;;
75793;SDS011;64418;47.536;19.074;2023-03-13T09:32:07;8.53;;;5.30;;
75793;SDS011;64418;47.536;19.074;2023-03-13T09:34:34;7.82;;;5.07;;
75793;SDS011;64418;47.536;19.074;2023-03-13T09:36:59;13.15;;;6.05;;
75793;SDS011;64418;47.536;19.074;2023-03-13T09:39:45;9.32;;;5.28;;
75793;SDS011;64418;47.536;19.074;2023-03-13T09:42:13;12.97;;;5.53;;
75793;SDS011;64418;47.536;19.074;2023-03-13T09:44:43;8.43;;;4.68;;
75793;SDS011;64418;47.536;19.074;2023-03-13T09:47:15;10.23;;;5.32;;
75793;SDS011;64418;47.536;19.074;2023-03-13T09:49:45;11.40;;;4.72;;
75793;SDS011;64418;47.536;19.074;2023-03-13T09:52:16;7.57;;;4.62;;
75793;SDS011;64418;47.536;19.074;2023-03-13T09:54:45;9.93;;;4.40;;
75793;SDS011;64418;47.536;19.074;2023-03-13T09:57:36;11.43;;;5.10;;
75793;SDS011;64418;47.536;19.074;2023-03-13T10:00:26;11.02;;;5.10;;
75793;SDS011;64418;47.536;19.074;2023-03-13T10:02:57;11.77;;;5.55;;
75793;SDS011;64418;47.536;19.074;2023-03-13T10:05:30;11.82;;;5.68;;
75793;SDS011;64418;47.536;19.074;2023-03-13T10:08:19;10.60;;;5.62;;
75793;SDS011;64418;47.536;19.074;2023-03-13T10:11:09;7.87;;;4.80;;
75793;SDS011;64418;47.536;19.074;2023-03-13T10:13:58;9.10;;;4.72;;
75793;SDS011;64418;47.536;19.074;2023-03-13T10:16:48;9.73;;;5.82;;
75793;SDS011;64418;47.536;19.074;2023-03-13T10:19:21;10.32;;;4.60;;
75793;SDS011;64418;47.536;19.074;2023-03-13T10:21:51;7.30;;;4.03;;
75793;SDS011;64418;47.536;19.074;2023-03-13T10:24:31;8.90;;;4.37;;
75793;SDS011;64418;47.536;19.074;2023-03-13T10:27:02;7.43;;;4.40;;
75793;SDS011;64418;47.536;19.074;2023-03-13T10:29:48;10.80;;;4.62;;
75793;SDS011;64418;47.536;19.074;2023-03-13T10:32:14;7.87;;;4.12;;
75793;SDS011;64418;47.536;19.074;2023-03-13T10:34:49;8.47;;;4.87;;
75793;SDS011;64418;47.536;19.074;2023-03-13T10:37:39;12.82;;;5.03;;
75793;SDS011;64418;47.536;19.074;2023-03-13T10:40:27;7.55;;;4.60;;
75793;SDS011;64418;47.536;19.074;2023-03-13T10:43:00;8.63;;;5.12;;
75793;SDS011;64418;47.536;19.074;2023-03-13T10:45:48;10.48;;;4.53;;
75793;SDS011;64418;47.536;19.074;2023-03-13T10:48:14;9.57;;;4.20;;
75793;SDS011;64418;47.536;19.074;2023-03-13T10:50:46;7.20;;;4.47;;
75793;SDS011;64418;47.536;19.074;2023-03-13T10:53:34;8.77;;;4.87;;
75793;SDS011;64418;47.536;19.074;2023-03-13T10:56:02;10.75;;;4.45;;
75793;SDS011;64418;47.536;19.074;2023-03-13T10:58:54;9.68;;;4.30;;
75793;SDS011;64418;47.536;19.074;2023-03-13T11:01:20;8.27;;;4.63;;
75793;SDS011;64418;47.536;19.074;2023-03-13T11:04:17;14.63;;;4.67;;
75793;SDS011;64418;47.536;19.074;2023-03-13T11:06:47;8.23;;;4.35;;
75793;SDS011;64418;47.536;19.074;2023-03-13T11:09:16;9.20;;;5.03;;
75793;SDS011;64418;47.536;19.074;2023-03-13T11:11:44;7.53;;;4.90;;
75793;SDS011;64418;47.536;19.074;2023-03-13T11:14:15;7.25;;;4.85;;
75793;SDS011;64418;47.536;19.074;2023-03-13T11:17:03;14.27;;;5.43;;
75793;SDS011;64418;47.536;19.074;2023-03-13T11:19:41;10.40;;;5.47;;
75793;SDS011;64418;47.536;19.074;2023-03-13T11:22:22;11.70;;;5.28;;
75793;SDS011;64418;47.536;19.074;2023-03-13T11:24:56;9.60;;;5.53;;
75793;SDS011;64418;47.536;19.074;2023-03-13T11:28:00;9.00;;;5.22;;
75793;SDS011;64418;47.536;19.074;2023-03-13T11:31:01;11.88;;;5.30;;
75793;SDS011;64418;47.536;19.074;2023-03-13T11:33:37;11.13;;;4.50;;
75793;SDS011;64418;47.536;19.074;2023-03-13T11:36:29;8.65;;;5.05;;
75793;SDS011;64418;47.536;19.074;2023-03-13T11:39:05;12.23;;;4.47;;
75793;SDS011;64418;47.536;19.074;2023-03-13T11:41:51;9.85;;;5.57;;
75793;SDS011;64418;47.536;19.074;2023-03-13T11:44:45;9.23;;;4.72;;
75793;SDS011;64418;47.536;19.074;2023-03-13T11:47:24;9.17;;;4.87;;
75793;SDS011;64418;47.536;19.074;2023-03-13T11:50:05;12.65;;;4.65;;
75793;SDS011;64418;47.536;19.074;2023-03-13T11:52:46;10.98;;;4.45;;
75793;SDS011;64418;47.536;19.074;2023-03-13T11:55:28;10.23;;;4.68;;
75793;SDS011;64418;47.536;19.074;2023-03-13T11:58:10;10.05;;;5.53;;
75793;SDS011;64418;47.536;19.074;2023-03-13T12:00:57;6.13;;;4.10;;
75793;SDS011;64418;47.536;19.074;2023-03-13T12:03:29;7.20;;;4.60;;
75793;SDS011;64418;47.536;19.074;2023-03-13T12:06:22;9.43;;;5.07;;
75793;SDS011;64418;47.536;19.074;2023-03-13T12:09:13;9.38;;;4.45;;
75793;SDS011;64418;47.536;19.074;2023-03-13T12:11:46;8.15;;;4.30;;
75793;SDS011;64418;47.536;19.074;2023-03-13T12:14:39;7.95;;;4.40;;
75793;SDS011;64418;47.536;19.074;2023-03-13T12:17:30;6.53;;;4.20;;
75793;SDS011;64418;47.536;19.074;2023-03-13T12:20:00;9.30;;;5.17;;
75793;SDS011;64418;47.536;19.074;2023-03-13T12:22:30;10.85;;;4.70;;
75793;SDS011;64418;47.536;19.074;2023-03-13T12:25:20;11.52;;;4.72;;
75793;SDS011;64418;47.536;19.074;2023-03-13T12:27:50;12.32;;;4.65;;
75793;SDS011;64418;47.536;19.074;2023-03-13T12:30:39;9.25;;;4.72;;
75793;SDS011;64418;47.536;19.074;2023-03-13T12:33:12;7.70;;;4.77;;
75793;SDS011;64418;47.536;19.074;2023-03-13T12:35:45;8.30;;;4.00;;
75793;SDS011;64418;47.536;19.074;2023-03-13T12:38:19;9.45;;;4.22;;
75793;SDS011;64418;47.536;19.074;2023-03-13T12:40:50;8.52;;;4.35;;
75793;SDS011;64418;47.536;19.074;2023-03-13T12:43:47;8.32;;;3.95;;
75793;SDS011;64418;47.536;19.074;2023-03-13T12:46:36;6.05;;;4.00;;
75793;SDS011;64418;47.536;19.074;2023-03-13T12:49:32;5.63;;;3.80;;
75793;SDS011;64418;47.536;19.074;2023-03-13T12:58:37;5.20;;;3.03;;
75793;SDS011;64418;47.536;19.074;2023-03-13T13:01:12;7.00;;;4.03;;
75793;SDS011;64418;47.536;19.074;2023-03-13T13:03:47;7.85;;;4.30;;
75793;SDS011;64418;47.536;19.074;2023-03-13T13:06:16;7.50;;;3.63;;
75793;SDS011;64418;47.536;19.074;2023-03-13T13:09:06;10.40;;;3.90;;
75793;SDS011;64418;47.536;19.074;2023-03-13T13:11:54;6.35;;;3.40;;
75793;SDS011;64418;47.536;19.074;2023-03-13T13:20:48;8.02;;;3.85;;
75793;SDS011;64418;47.536;19.074;2023-03-13T13:23:35;6.27;;;3.90;;
75793;SDS011;64418;47.536;19.074;2023-03-13T13:32:36;9.70;;;4.03;;
75793;SDS011;64418;47.536;19.074;2023-03-13T13:35:31;7.37;;;2.75;;
75793;SDS011;64418;47.536;19.074;2023-03-13T13:41:00;7.80;;;3.03;;
75793;SDS011;64418;47.536;19.074;2023-03-13T13:43:29;5.53;;;2.63;;
75793;SDS011;64418;47.536;19.074;2023-03-13T13:45:59;6.65;;;3.12;;
75793;SDS011;64418;47.536;19.074;2023-03-13T13:48:54;8.18;;;2.85;;
75793;SDS011;64418;47.536;19.074;2023-03-13T13:58:27;6.80;;;2.80;;
75793;SDS011;64418;47.536;19.074;2023-03-13T14:00:55;6.30;;;2.60;;
75793;SDS011;64418;47.536;19.074;2023-03-13T14:03:45;5.78;;;2.40;;
75793;SDS011;64418;47.536;19.074;2023-03-13T14:06:34;7.30;;;2.65;;
75793;SDS011;64418;47.536;19.074;2023-03-13T14:09:10;5.70;;;2.62;;
75793;SDS011;64418;47.536;19.074;2023-03-13T14:15:05;8.20;;;2.87;;
75793;SDS011;64418;47.536;19.074;2023-03-13T14:17:36;6.10;;;2.67;;
75793;SDS011;64418;47.536;19.074;2023-03-13T14:20:04;7.20;;;2.90;;
75793;SDS011;64418;47.536;19.074;2023-03-13T14:23:01;5.53;;;2.62;;
75793;SDS011;64418;47.536;19.074;2023-03-13T14:25:41;6.68;;;2.20;;
75793;SDS011;64418;47.536;19.074;2023-03-13T14:28:16;5.93;;;2.70;;
75793;SDS011;64418;47.536;19.074;2023-03-13T14:30:44;4.13;;;2.30;;
75793;SDS011;64418;47.536;19.074;2023-03-13T14:33:32;4.45;;;2.15;;
75793;SDS011;64418;47.536;19.074;2023-03-13T14:35:59;5.00;;;2.30;;
75793;SDS011;64418;47.536;19.074;2023-03-13T14:38:26;7.22;;;2.17;;
75793;SDS011;64418;47.536;19.074;2023-03-13T14:41:22;7.32;;;1.95;;
75793;SDS011;64418;47.536;19.074;2023-03-13T14:44:13;5.37;;;1.80;;
75793;SDS011;64418;47.536;19.074;2023-03-13T14:47:03;4.07;;;1.47;;
75793;SDS011;64418;47.536;19.074;2023-03-13T14:49:54;2.85;;;1.40;;
75793;SDS011;64418;47.536;19.074;2023-03-13T14:52:43;13.88;;;2.00;;
75793;SDS011;64418;47.536;19.074;2023-03-13T14:55:25;7.07;;;2.00;;
75793;SDS011;64418;47.536;19.074;2023-03-13T14:58:27;8.63;;;1.60;;
75793;SDS011;64418;47.536;19.074;2023-03-13T15:00:55;6.17;;;1.77;;
75793;SDS011;64418;47.536;19.074;2023-03-13T15:03:44;5.83;;;1.73;;
75793;SDS011;64418;47.536;19.074;2023-03-13T15:06:29;3.45;;;1.30;;
75793;SDS011;64418;47.536;19.074;2023-03-13T15:09:16;5.78;;;1.70;;
75793;SDS011;64418;47.536;19.074;2023-03-13T15:12:03;6.82;;;1.77;;
75793;SDS011;64418;47.536;19.074;2023-03-13T15:14:52;4.22;;;1.40;;
75793;SDS011;64418;47.536;19.074;2023-03-13T15:17:18;4.03;;;1.37;;
75793;SDS011;64418;47.536;19.074;2023-03-13T15:19:52;3.60;;;1.30;;
75793;SDS011;64418;47.536;19.074;2023-03-13T15:22:43;5.68;;;1.95;;
75793;SDS011;64418;47.536;19.074;2023-03-13T15:25:13;6.22;;;1.60;;
75793;SDS011;64418;47.536;19.074;2023-03-13T15:28:00;5.65;;;1.87;;
75793;SDS011;64418;47.536;19.074;2023-03-13T15:30:27;2.70;;;1.53;;
75793;SDS011;64418;47.536;19.074;2023-03-13T15:32:53;3.47;;;1.25;;
75793;SDS011;64418;47.536;19.074;2023-03-13T15:35:24;9.57;;;2.00;;
75793;SDS011;64418;47.536;19.074;2023-03-13T15:37:52;4.60;;;1.62;;
75793;SDS011;64418;47.536;19.074;2023-03-13T15:40:38;6.37;;;1.40;;